Jordan Valley, OR

8:15 AM MDT on September 26, 2016 (GMT -0600)
Rome State | | Change Station

Elev 4049 ft 42.59 °N, 117.86 °W | Updated 23 minutes ago

Clear
Clear
41 °F
Feels Like 39 °F
N
4
Wind Variable Wind from ESE
Gusts mph

Today
High -- | Low -- °F
--% Chance of Precip.
Yesterday
High -- | Low -- °F
Precip. -- in
Pressure 30.32 in
Visibility -9999.0 miles
Clouds
Windchill 39 °F
Dew Point 34 °F
Humidity 76%
Rainfall 0.00 in
Snow Depth Not available.
7:43 AM 7:40 PM
Waning Crescent, 18% visible
METAR KREO 261352Z AUTO 11003KT 05/01 A3035 RMK AO1 SLP265 T00500011
Pressure 30.32 in
Visibility -9999.0 miles
Clouds
Windchill 39 °F
Dew Point 34 °F
Humidity 76%
Rainfall 0.00 in
Snow Depth Not available.
7:43 AM 7:40 PM
Waning Crescent, 18% visible
METAR KREO 261352Z AUTO 11003KT 05/01 A3035 RMK AO1 SLP265 T00500011

10-Day Weather Forecast

Almanac

Astronomy

Sep. 26, 2016 Rise Set
Actual Time
Civil Twilight
Nautical Twilight
Astronomical Twilight
Moon
Length of Visible Light
Length of Day
Tomorrow will be .
, % of the Moon is Illuminated

Today's Extremes

State Highs State Lows

Community

WunderPhotos

Upload Photos

1,941,887 photos uploaded!

WunderBlog® & News

Nearby

Air Quality

  Air Quality AQ Index Pollutant
Not available.

Snow Depth

Station Depth Elevation

Earthquake Activity

City Distance Mag. Time & Date
Minimum magnitude displayed is 2.5.

Coastal Water Temperatures

Place Temperature

Stations

Nearby Weather Stations

Station Location Temp. Windchill Dew Point Humidity Wind Precip. Elev Updated Type
                   

Watches & Warnings

There are currently no watches in effect.